sensor_id;sensor_type;location;lat;lon;timestamp;P1;durP1;ratioP1;P2;durP2;ratioP2
56183;SDS011;42086;53.170;6.980;2023-01-25T00:01:59;40.50;;;17.75;;
56183;SDS011;42086;53.170;6.980;2023-01-25T00:04:25;40.97;;;17.25;;
56183;SDS011;42086;53.170;6.980;2023-01-25T00:06:51;40.78;;;16.95;;
56183;SDS011;42086;53.170;6.980;2023-01-25T00:09:16;40.13;;;17.33;;
56183;SDS011;42086;53.170;6.980;2023-01-25T00:11:43;41.28;;;16.92;;
56183;SDS011;42086;53.170;6.980;2023-01-25T00:14:09;42.53;;;17.98;;
56183;SDS011;42086;53.170;6.980;2023-01-25T00:16:36;39.13;;;16.42;;
56183;SDS011;42086;53.170;6.980;2023-01-25T00:19:02;37.08;;;16.08;;
56183;SDS011;42086;53.170;6.980;2023-01-25T00:21:28;38.95;;;17.65;;
56183;SDS011;42086;53.170;6.980;2023-01-25T00:23:54;40.75;;;17.65;;
56183;SDS011;42086;53.170;6.980;2023-01-25T00:26:20;37.67;;;16.60;;
56183;SDS011;42086;53.170;6.980;2023-01-25T00:28:50;41.45;;;17.63;;
56183;SDS011;42086;53.170;6.980;2023-01-25T00:31:36;40.97;;;17.42;;
56183;SDS011;42086;53.170;6.980;2023-01-25T00:36:55;41.10;;;17.42;;
56183;SDS011;42086;53.170;6.980;2023-01-25T00:39:36;46.15;;;17.73;;
56183;SDS011;42086;53.170;6.980;2023-01-25T00:42:03;41.92;;;17.52;;
56183;SDS011;42086;53.170;6.980;2023-01-25T00:44:30;41.88;;;17.63;;
56183;SDS011;42086;53.170;6.980;2023-01-25T00:46:55;45.45;;;18.13;;
56183;SDS011;42086;53.170;6.980;2023-01-25T00:49:22;39.92;;;17.15;;
56183;SDS011;42086;53.170;6.980;2023-01-25T00:51:50;43.67;;;17.83;;
56183;SDS011;42086;53.170;6.980;2023-01-25T00:54:17;46.15;;;18.33;;
56183;SDS011;42086;53.170;6.980;2023-01-25T00:56:43;41.28;;;17.80;;
56183;SDS011;42086;53.170;6.980;2023-01-25T00:59:10;47.88;;;19.15;;
56183;SDS011;42086;53.170;6.980;2023-01-25T01:01:37;38.95;;;16.23;;
56183;SDS011;42086;53.170;6.980;2023-01-25T01:04:04;45.92;;;19.05;;
56183;SDS011;42086;53.170;6.980;2023-01-25T01:06:30;46.85;;;18.90;;
56183;SDS011;42086;53.170;6.980;2023-01-25T01:08:55;52.88;;;20.15;;
56183;SDS011;42086;53.170;6.980;2023-01-25T01:11:21;51.47;;;20.30;;
56183;SDS011;42086;53.170;6.980;2023-01-25T01:13:47;48.00;;;19.35;;
56183;SDS011;42086;53.170;6.980;2023-01-25T01:16:12;52.15;;;20.17;;
56183;SDS011;42086;53.170;6.980;2023-01-25T01:18:40;44.20;;;19.35;;
56183;SDS011;42086;53.170;6.980;2023-01-25T01:21:07;50.05;;;20.65;;
56183;SDS011;42086;53.170;6.980;2023-01-25T01:23:33;48.03;;;18.30;;
56183;SDS011;42086;53.170;6.980;2023-01-25T01:26:00;48.95;;;19.45;;
56183;SDS011;42086;53.170;6.980;2023-01-25T01:28:28;50.00;;;19.52;;
56183;SDS011;42086;53.170;6.980;2023-01-25T01:31:01;47.97;;;18.33;;
56183;SDS011;42086;53.170;6.980;2023-01-25T01:33:28;48.53;;;19.00;;
56183;SDS011;42086;53.170;6.980;2023-01-25T01:35:54;48.67;;;18.83;;
56183;SDS011;42086;53.170;6.980;2023-01-25T01:38:20;44.85;;;16.13;;
56183;SDS011;42086;53.170;6.980;2023-01-25T01:40:46;45.33;;;19.23;;
56183;SDS011;42086;53.170;6.980;2023-01-25T01:43:22;44.50;;;17.38;;
56183;SDS011;42086;53.170;6.980;2023-01-25T01:53:36;44.95;;;19.08;;
56183;SDS011;42086;53.170;6.980;2023-01-25T01:56:05;49.58;;;19.50;;
56183;SDS011;42086;53.170;6.980;2023-01-25T01:58:37;46.38;;;18.63;;
56183;SDS011;42086;53.170;6.980;2023-01-25T02:01:05;49.58;;;19.75;;
56183;SDS011;42086;53.170;6.980;2023-01-25T02:03:30;52.38;;;19.35;;
56183;SDS011;42086;53.170;6.980;2023-01-25T02:08:34;50.83;;;19.38;;
56183;SDS011;42086;53.170;6.980;2023-01-25T02:11:01;51.10;;;19.15;;
56183;SDS011;42086;53.170;6.980;2023-01-25T02:13:28;51.88;;;19.75;;
56183;SDS011;42086;53.170;6.980;2023-01-25T02:15:55;56.50;;;20.77;;
56183;SDS011;42086;53.170;6.980;2023-01-25T02:18:21;54.70;;;21.13;;
56183;SDS011;42086;53.170;6.980;2023-01-25T02:20:52;55.97;;;21.40;;
56183;SDS011;42086;53.170;6.980;2023-01-25T02:23:23;60.38;;;23.05;;
56183;SDS011;42086;53.170;6.980;2023-01-25T02:25:59;48.42;;;20.65;;
56183;SDS011;42086;53.170;6.980;2023-01-25T02:30:56;52.00;;;21.15;;
56183;SDS011;42086;53.170;6.980;2023-01-25T02:33:25;57.67;;;20.63;;
56183;SDS011;42086;53.170;6.980;2023-01-25T02:38:33;57.97;;;21.20;;
56183;SDS011;42086;53.170;6.980;2023-01-25T02:41:02;53.50;;;20.50;;
56183;SDS011;42086;53.170;6.980;2023-01-25T02:43:39;51.83;;;19.77;;
56183;SDS011;42086;53.170;6.980;2023-01-25T02:46:11;57.88;;;20.70;;
56183;SDS011;42086;53.170;6.980;2023-01-25T02:48:39;54.40;;;20.58;;
56183;SDS011;42086;53.170;6.980;2023-01-25T02:51:05;56.63;;;21.30;;
56183;SDS011;42086;53.170;6.980;2023-01-25T02:53:33;58.22;;;22.02;;
56183;SDS011;42086;53.170;6.980;2023-01-25T02:55:58;56.22;;;20.33;;
56183;SDS011;42086;53.170;6.980;2023-01-25T02:58:24;53.33;;;18.52;;
56183;SDS011;42086;53.170;6.980;2023-01-25T03:00:50;51.38;;;19.45;;
56183;SDS011;42086;53.170;6.980;2023-01-25T03:03:16;56.80;;;21.58;;
56183;SDS011;42086;53.170;6.980;2023-01-25T03:05:42;55.08;;;20.92;;
56183;SDS011;42086;53.170;6.980;2023-01-25T03:08:08;54.63;;;19.35;;
56183;SDS011;42086;53.170;6.980;2023-01-25T03:10:34;55.55;;;19.90;;
56183;SDS011;42086;53.170;6.980;2023-01-25T03:12:59;58.42;;;20.25;;
56183;SDS011;42086;53.170;6.980;2023-01-25T03:15:25;50.88;;;19.85;;
56183;SDS011;42086;53.170;6.980;2023-01-25T03:17:51;52.78;;;19.58;;
56183;SDS011;42086;53.170;6.980;2023-01-25T03:20:19;48.10;;;18.52;;
56183;SDS011;42086;53.170;6.980;2023-01-25T03:22:45;47.15;;;17.98;;
56183;SDS011;42086;53.170;6.980;2023-01-25T03:25:10;53.33;;;19.90;;
56183;SDS011;42086;53.170;6.980;2023-01-25T03:27:36;58.50;;;21.45;;
56183;SDS011;42086;53.170;6.980;2023-01-25T03:30:02;60.03;;;21.33;;
56183;SDS011;42086;53.170;6.980;2023-01-25T03:32:28;55.33;;;20.38;;
56183;SDS011;42086;53.170;6.980;2023-01-25T03:34:54;52.30;;;18.58;;
56183;SDS011;42086;53.170;6.980;2023-01-25T03:37:19;59.13;;;21.60;;
56183;SDS011;42086;53.170;6.980;2023-01-25T03:39:46;59.63;;;21.80;;
56183;SDS011;42086;53.170;6.980;2023-01-25T03:42:11;60.03;;;21.10;;
56183;SDS011;42086;53.170;6.980;2023-01-25T03:44:37;62.78;;;22.48;;
56183;SDS011;42086;53.170;6.980;2023-01-25T03:47:03;58.70;;;22.00;;
56183;SDS011;42086;53.170;6.980;2023-01-25T03:49:28;66.05;;;23.90;;
56183;SDS011;42086;53.170;6.980;2023-01-25T03:51:54;62.90;;;24.02;;
56183;SDS011;42086;53.170;6.980;2023-01-25T03:54:22;60.13;;;22.52;;
56183;SDS011;42086;53.170;6.980;2023-01-25T03:56:48;61.58;;;22.25;;
56183;SDS011;42086;53.170;6.980;2023-01-25T03:59:13;62.88;;;23.90;;
56183;SDS011;42086;53.170;6.980;2023-01-25T04:01:39;59.72;;;23.10;;
56183;SDS011;42086;53.170;6.980;2023-01-25T04:04:05;61.65;;;22.63;;
56183;SDS011;42086;53.170;6.980;2023-01-25T04:06:30;66.85;;;24.33;;
56183;SDS011;42086;53.170;6.980;2023-01-25T04:08:56;62.47;;;23.52;;
56183;SDS011;42086;53.170;6.980;2023-01-25T04:11:22;62.53;;;21.40;;
56183;SDS011;42086;53.170;6.980;2023-01-25T04:13:47;67.10;;;24.00;;
56183;SDS011;42086;53.170;6.980;2023-01-25T04:16:13;63.45;;;23.40;;
56183;SDS011;42086;53.170;6.980;2023-01-25T04:18:39;68.57;;;23.60;;
56183;SDS011;42086;53.170;6.980;2023-01-25T04:21:04;64.95;;;23.70;;
56183;SDS011;42086;53.170;6.980;2023-01-25T04:23:30;67.50;;;24.60;;
56183;SDS011;42086;53.170;6.980;2023-01-25T04:25:58;62.95;;;23.23;;
56183;SDS011;42086;53.170;6.980;2023-01-25T04:28:29;69.88;;;24.90;;
56183;SDS011;42086;53.170;6.980;2023-01-25T04:30:56;64.70;;;23.75;;
56183;SDS011;42086;53.170;6.980;2023-01-25T04:33:23;66.72;;;23.95;;
56183;SDS011;42086;53.170;6.980;2023-01-25T04:35:49;64.30;;;23.80;;
56183;SDS011;42086;53.170;6.980;2023-01-25T04:38:15;63.83;;;23.23;;
56183;SDS011;42086;53.170;6.980;2023-01-25T04:40:42;63.78;;;21.00;;
56183;SDS011;42086;53.170;6.980;2023-01-25T04:43:09;63.97;;;23.08;;
56183;SDS011;42086;53.170;6.980;2023-01-25T04:45:36;64.15;;;22.85;;
56183;SDS011;42086;53.170;6.980;2023-01-25T04:48:03;62.72;;;23.40;;
56183;SDS011;42086;53.170;6.980;2023-01-25T04:50:30;61.20;;;21.60;;
56183;SDS011;42086;53.170;6.980;2023-01-25T04:52:56;66.53;;;23.52;;
56183;SDS011;42086;53.170;6.980;2023-01-25T04:55:22;60.60;;;21.38;;
56183;SDS011;42086;53.170;6.980;2023-01-25T04:57:48;64.43;;;23.23;;
56183;SDS011;42086;53.170;6.980;2023-01-25T05:00:15;70.00;;;24.23;;
56183;SDS011;42086;53.170;6.980;2023-01-25T05:02:41;69.07;;;24.92;;
56183;SDS011;42086;53.170;6.980;2023-01-25T05:05:07;69.38;;;24.35;;
56183;SDS011;42086;53.170;6.980;2023-01-25T05:07:34;61.83;;;23.77;;
56183;SDS011;42086;53.170;6.980;2023-01-25T05:09:59;62.80;;;22.88;;
56183;SDS011;42086;53.170;6.980;2023-01-25T05:12:25;63.30;;;21.90;;
56183;SDS011;42086;53.170;6.980;2023-01-25T05:14:51;59.33;;;21.65;;
56183;SDS011;42086;53.170;6.980;2023-01-25T05:17:17;65.07;;;24.40;;
56183;SDS011;42086;53.170;6.980;2023-01-25T05:19:42;64.38;;;22.35;;
56183;SDS011;42086;53.170;6.980;2023-01-25T05:22:12;64.85;;;23.58;;
56183;SDS011;42086;53.170;6.980;2023-01-25T05:24:39;65.82;;;23.50;;
56183;SDS011;42086;53.170;6.980;2023-01-25T05:27:06;63.83;;;23.52;;
56183;SDS011;42086;53.170;6.980;2023-01-25T05:29:36;67.20;;;24.77;;
56183;SDS011;42086;53.170;6.980;2023-01-25T05:32:14;66.70;;;23.52;;
56183;SDS011;42086;53.170;6.980;2023-01-25T05:34:45;67.07;;;24.53;;
56183;SDS011;42086;53.170;6.980;2023-01-25T05:37:14;69.43;;;24.30;;
56183;SDS011;42086;53.170;6.980;2023-01-25T05:39:42;70.35;;;24.27;;
56183;SDS011;42086;53.170;6.980;2023-01-25T05:42:15;69.85;;;24.30;;
56183;SDS011;42086;53.170;6.980;2023-01-25T05:44:42;72.28;;;24.63;;
56183;SDS011;42086;53.170;6.980;2023-01-25T05:47:12;60.17;;;20.73;;
56183;SDS011;42086;53.170;6.980;2023-01-25T05:49:39;73.63;;;26.08;;
56183;SDS011;42086;53.170;6.980;2023-01-25T05:52:05;76.20;;;25.42;;
56183;SDS011;42086;53.170;6.980;2023-01-25T05:54:31;73.40;;;25.80;;
56183;SDS011;42086;53.170;6.980;2023-01-25T05:56:56;73.93;;;26.67;;
56183;SDS011;42086;53.170;6.980;2023-01-25T05:59:22;71.18;;;24.63;;
56183;SDS011;42086;53.170;6.980;2023-01-25T06:01:48;73.22;;;25.35;;
56183;SDS011;42086;53.170;6.980;2023-01-25T06:04:14;70.45;;;24.00;;
56183;SDS011;42086;53.170;6.980;2023-01-25T06:06:40;75.50;;;25.25;;
56183;SDS011;42086;53.170;6.980;2023-01-25T06:09:06;78.95;;;26.13;;
56183;SDS011;42086;53.170;6.980;2023-01-25T06:11:34;74.00;;;25.70;;
56183;SDS011;42086;53.170;6.980;2023-01-25T06:13:59;72.45;;;25.58;;
56183;SDS011;42086;53.170;6.980;2023-01-25T06:16:25;73.70;;;25.48;;
56183;SDS011;42086;53.170;6.980;2023-01-25T06:18:51;72.43;;;25.65;;
56183;SDS011;42086;53.170;6.980;2023-01-25T06:21:17;71.15;;;25.58;;
56183;SDS011;42086;53.170;6.980;2023-01-25T06:23:43;80.55;;;27.42;;
56183;SDS011;42086;53.170;6.980;2023-01-25T06:26:10;73.80;;;27.05;;
56183;SDS011;42086;53.170;6.980;2023-01-25T06:28:37;78.50;;;25.55;;
56183;SDS011;42086;53.170;6.980;2023-01-25T06:33:34;77.00;;;27.05;;
56183;SDS011;42086;53.170;6.980;2023-01-25T06:36:04;80.70;;;28.17;;
56183;SDS011;42086;53.170;6.980;2023-01-25T06:38:32;78.00;;;27.70;;
56183;SDS011;42086;53.170;6.980;2023-01-25T06:41:01;84.63;;;29.23;;
56183;SDS011;42086;53.170;6.980;2023-01-25T06:43:29;84.53;;;30.17;;
56183;SDS011;42086;53.170;6.980;2023-01-25T06:46:03;87.10;;;29.60;;
56183;SDS011;42086;53.170;6.980;2023-01-25T06:48:31;79.72;;;28.15;;
56183;SDS011;42086;53.170;6.980;2023-01-25T06:51:01;86.82;;;28.77;;
56183;SDS011;42086;53.170;6.980;2023-01-25T06:56:00;78.15;;;27.52;;
56183;SDS011;42086;53.170;6.980;2023-01-25T06:58:28;62.75;;;21.50;;
56183;SDS011;42086;53.170;6.980;2023-01-25T07:00:58;72.35;;;25.00;;
56183;SDS011;42086;53.170;6.980;2023-01-25T07:03:52;69.40;;;23.60;;
56183;SDS011;42086;53.170;6.980;2023-01-25T07:06:19;79.38;;;27.63;;
56183;SDS011;42086;53.170;6.980;2023-01-25T07:08:46;76.82;;;24.67;;
56183;SDS011;42086;53.170;6.980;2023-01-25T07:11:12;68.63;;;23.02;;
56183;SDS011;42086;53.170;6.980;2023-01-25T07:13:42;78.93;;;26.85;;
56183;SDS011;42086;53.170;6.980;2023-01-25T07:16:12;75.82;;;27.33;;
56183;SDS011;42086;53.170;6.980;2023-01-25T07:18:40;73.38;;;25.77;;
56183;SDS011;42086;53.170;6.980;2023-01-25T07:21:07;69.82;;;23.85;;
56183;SDS011;42086;53.170;6.980;2023-01-25T07:23:35;72.50;;;25.90;;
56183;SDS011;42086;53.170;6.980;2023-01-25T07:26:02;68.88;;;23.33;;
56183;SDS011;42086;53.170;6.980;2023-01-25T07:28:30;81.38;;;27.60;;
56183;SDS011;42086;53.170;6.980;2023-01-25T07:31:02;74.80;;;26.40;;
56183;SDS011;42086;53.170;6.980;2023-01-25T07:33:32;70.97;;;24.17;;
56183;SDS011;42086;53.170;6.980;2023-01-25T07:36:01;75.05;;;26.05;;
56183;SDS011;42086;53.170;6.980;2023-01-25T07:38:31;76.18;;;25.80;;
56183;SDS011;42086;53.170;6.980;2023-01-25T07:40:58;75.15;;;24.77;;
56183;SDS011;42086;53.170;6.980;2023-01-25T07:43:23;72.05;;;24.42;;
56183;SDS011;42086;53.170;6.980;2023-01-25T07:45:50;74.28;;;25.23;;
56183;SDS011;42086;53.170;6.980;2023-01-25T07:48:16;81.30;;;26.58;;
56183;SDS011;42086;53.170;6.980;2023-01-25T07:50:43;76.05;;;25.27;;
56183;SDS011;42086;53.170;6.980;2023-01-25T07:53:34;78.55;;;28.45;;
56183;SDS011;42086;53.170;6.980;2023-01-25T07:56:00;77.32;;;25.50;;
56183;SDS011;42086;53.170;6.980;2023-01-25T07:58:25;82.18;;;27.50;;
56183;SDS011;42086;53.170;6.980;2023-01-25T08:00:51;81.57;;;27.65;;
56183;SDS011;42086;53.170;6.980;2023-01-25T08:03:17;80.97;;;26.90;;
56183;SDS011;42086;53.170;6.980;2023-01-25T08:05:46;79.75;;;25.63;;
56183;SDS011;42086;53.170;6.980;2023-01-25T08:08:12;75.13;;;26.48;;
56183;SDS011;42086;53.170;6.980;2023-01-25T08:10:38;76.05;;;26.75;;
56183;SDS011;42086;53.170;6.980;2023-01-25T08:13:04;73.80;;;24.95;;
56183;SDS011;42086;53.170;6.980;2023-01-25T08:15:31;78.57;;;25.58;;
56183;SDS011;42086;53.170;6.980;2023-01-25T08:18:00;77.35;;;26.23;;
56183;SDS011;42086;53.170;6.980;2023-01-25T08:20:26;70.32;;;23.60;;
56183;SDS011;42086;53.170;6.980;2023-01-25T08:22:51;71.13;;;23.45;;
56183;SDS011;42086;53.170;6.980;2023-01-25T08:25:17;76.97;;;25.80;;
56183;SDS011;42086;53.170;6.980;2023-01-25T08:27:43;72.20;;;24.60;;
56183;SDS011;42086;53.170;6.980;2023-01-25T08:30:09;69.30;;;24.50;;
56183;SDS011;42086;53.170;6.980;2023-01-25T08:32:37;68.20;;;25.77;;
56183;SDS011;42086;53.170;6.980;2023-01-25T08:35:03;64.78;;;22.50;;
56183;SDS011;42086;53.170;6.980;2023-01-25T08:37:29;58.70;;;23.08;;
56183;SDS011;42086;53.170;6.980;2023-01-25T08:39:55;62.03;;;21.40;;
56183;SDS011;42086;53.170;6.980;2023-01-25T08:42:22;62.65;;;22.25;;
56183;SDS011;42086;53.170;6.980;2023-01-25T08:44:48;50.45;;;15.60;;
56183;SDS011;42086;53.170;6.980;2023-01-25T08:47:14;65.25;;;23.10;;
56183;SDS011;42086;53.170;6.980;2023-01-25T08:49:39;72.95;;;23.65;;
56183;SDS011;42086;53.170;6.980;2023-01-25T08:52:05;62.70;;;22.40;;
56183;SDS011;42086;53.170;6.980;2023-01-25T08:54:31;60.92;;;22.23;;
56183;SDS011;42086;53.170;6.980;2023-01-25T08:56:57;56.97;;;19.27;;
56183;SDS011;42086;53.170;6.980;2023-01-25T08:59:22;61.42;;;22.63;;
56183;SDS011;42086;53.170;6.980;2023-01-25T09:01:48;63.30;;;22.90;;
56183;SDS011;42086;53.170;6.980;2023-01-25T09:04:14;62.88;;;23.50;;
56183;SDS011;42086;53.170;6.980;2023-01-25T09:06:40;61.53;;;22.73;;
56183;SDS011;42086;53.170;6.980;2023-01-25T09:09:05;64.13;;;22.20;;
56183;SDS011;42086;53.170;6.980;2023-01-25T09:11:33;62.97;;;23.10;;
56183;SDS011;42086;53.170;6.980;2023-01-25T09:14:01;50.67;;;17.55;;
56183;SDS011;42086;53.170;6.980;2023-01-25T09:16:27;65.40;;;22.77;;
56183;SDS011;42086;53.170;6.980;2023-01-25T09:18:53;66.47;;;23.92;;
56183;SDS011;42086;53.170;6.980;2023-01-25T09:21:21;60.40;;;21.17;;
56183;SDS011;42086;53.170;6.980;2023-01-25T09:23:47;64.78;;;23.75;;
56183;SDS011;42086;53.170;6.980;2023-01-25T09:26:15;62.03;;;20.63;;
56183;SDS011;42086;53.170;6.980;2023-01-25T09:28:41;62.25;;;21.98;;
56183;SDS011;42086;53.170;6.980;2023-01-25T09:31:10;61.75;;;22.48;;
56183;SDS011;42086;53.170;6.980;2023-01-25T09:33:37;63.55;;;22.60;;
56183;SDS011;42086;53.170;6.980;2023-01-25T09:36:04;59.92;;;20.58;;
56183;SDS011;42086;53.170;6.980;2023-01-25T09:38:30;59.92;;;22.08;;
56183;SDS011;42086;53.170;6.980;2023-01-25T09:45:57;60.83;;;21.65;;
56183;SDS011;42086;53.170;6.980;2023-01-25T09:48:40;65.65;;;23.38;;
56183;SDS011;42086;53.170;6.980;2023-01-25T09:51:18;66.55;;;22.75;;
56183;SDS011;42086;53.170;6.980;2023-01-25T09:54:08;62.30;;;19.98;;
56183;SDS011;42086;53.170;6.980;2023-01-25T09:56:35;66.43;;;23.20;;
56183;SDS011;42086;53.170;6.980;2023-01-25T09:59:12;55.78;;;19.92;;
56183;SDS011;42086;53.170;6.980;2023-01-25T10:04:48;62.95;;;21.02;;
56183;SDS011;42086;53.170;6.980;2023-01-25T10:07:21;57.83;;;21.05;;
56183;SDS011;42086;53.170;6.980;2023-01-25T10:10:10;68.78;;;24.25;;
56183;SDS011;42086;53.170;6.980;2023-01-25T10:12:42;68.68;;;22.98;;
56183;SDS011;42086;53.170;6.980;2023-01-25T10:15:16;53.65;;;19.15;;
56183;SDS011;42086;53.170;6.980;2023-01-25T10:17:44;63.72;;;22.10;;
56183;SDS011;42086;53.170;6.980;2023-01-25T10:34:32;63.70;;;22.65;;
56183;SDS011;42086;53.170;6.980;2023-01-25T10:37:03;62.65;;;20.45;;
56183;SDS011;42086;53.170;6.980;2023-01-25T10:42:43;58.33;;;18.98;;
56183;SDS011;42086;53.170;6.980;2023-01-25T10:45:15;51.03;;;17.42;;
56183;SDS011;42086;53.170;6.980;2023-01-25T10:47:42;68.07;;;22.30;;
56183;SDS011;42086;53.170;6.980;2023-01-25T10:50:59;66.90;;;22.73;;
56183;SDS011;42086;53.170;6.980;2023-01-25T10:53:15;62.58;;;20.70;;
56183;SDS011;42086;53.170;6.980;2023-01-25T11:01:06;74.72;;;25.98;;
56183;SDS011;42086;53.170;6.980;2023-01-25T11:03:35;73.97;;;25.65;;
56183;SDS011;42086;53.170;6.980;2023-01-25T11:06:03;73.38;;;24.42;;
56183;SDS011;42086;53.170;6.980;2023-01-25T11:10:55;72.05;;;25.02;;
56183;SDS011;42086;53.170;6.980;2023-01-25T11:13:25;69.18;;;26.75;;
56183;SDS011;42086;53.170;6.980;2023-01-25T11:18:26;58.38;;;19.40;;
56183;SDS011;42086;53.170;6.980;2023-01-25T11:21:11;69.15;;;24.63;;
56183;SDS011;42086;53.170;6.980;2023-01-25T11:23:49;65.63;;;21.27;;
56183;SDS011;42086;53.170;6.980;2023-01-25T11:28:50;51.67;;;18.63;;
56183;SDS011;42086;53.170;6.980;2023-01-25T11:31:44;55.88;;;19.85;;
56183;SDS011;42086;53.170;6.980;2023-01-25T11:34:19;53.55;;;18.23;;
56183;SDS011;42086;53.170;6.980;2023-01-25T11:36:50;65.88;;;22.55;;
56183;SDS011;42086;53.170;6.980;2023-01-25T11:39:58;69.78;;;21.60;;
56183;SDS011;42086;53.170;6.980;2023-01-25T11:53:15;66.32;;;21.10;;
56183;SDS011;42086;53.170;6.980;2023-01-25T12:02:18;44.33;;;14.70;;
56183;SDS011;42086;53.170;6.980;2023-01-25T12:07:44;55.13;;;17.98;;
56183;SDS011;42086;53.170;6.980;2023-01-25T12:16:08;62.05;;;19.10;;
56183;SDS011;42086;53.170;6.980;2023-01-25T12:18:59;53.55;;;16.77;;
56183;SDS011;42086;53.170;6.980;2023-01-25T12:27:16;57.88;;;19.05;;
56183;SDS011;42086;53.170;6.980;2023-01-25T12:29:57;65.93;;;21.55;;
56183;SDS011;42086;53.170;6.980;2023-01-25T12:32:36;60.95;;;19.98;;
56183;SDS011;42086;53.170;6.980;2023-01-25T12:35:33;71.35;;;20.92;;
56183;SDS011;42086;53.170;6.980;2023-01-25T12:38:07;53.33;;;16.27;;
56183;SDS011;42086;53.170;6.980;2023-01-25T12:40:42;62.78;;;19.80;;
56183;SDS011;42086;53.170;6.980;2023-01-25T12:44:00;66.00;;;21.38;;
56183;SDS011;42086;53.170;6.980;2023-01-25T12:46:17;66.63;;;21.45;;
56183;SDS011;42086;53.170;6.980;2023-01-25T12:49:16;57.05;;;18.55;;
56183;SDS011;42086;53.170;6.980;2023-01-25T12:52:14;61.08;;;20.20;;
56183;SDS011;42086;53.170;6.980;2023-01-25T12:54:46;54.38;;;17.27;;
56183;SDS011;42086;53.170;6.980;2023-01-25T13:05:24;56.70;;;18.17;;
56183;SDS011;42086;53.170;6.980;2023-01-25T13:08:00;63.08;;;19.05;;
56183;SDS011;42086;53.170;6.980;2023-01-25T13:10:29;63.45;;;19.60;;
56183;SDS011;42086;53.170;6.980;2023-01-25T13:12:59;63.97;;;18.65;;
56183;SDS011;42086;53.170;6.980;2023-01-25T13:15:39;66.35;;;19.75;;
56183;SDS011;42086;53.170;6.980;2023-01-25T13:28:56;66.73;;;20.63;;
56183;SDS011;42086;53.170;6.980;2023-01-25T13:31:42;64.45;;;20.02;;
56183;SDS011;42086;53.170;6.980;2023-01-25T13:34:10;67.13;;;20.23;;
56183;SDS011;42086;53.170;6.980;2023-01-25T13:36:36;67.35;;;20.92;;
56183;SDS011;42086;53.170;6.980;2023-01-25T13:42:00;64.32;;;20.55;;
56183;SDS011;42086;53.170;6.980;2023-01-25T13:44:43;59.38;;;18.63;;
56183;SDS011;42086;53.170;6.980;2023-01-25T13:47:12;68.90;;;20.55;;
56183;SDS011;42086;53.170;6.980;2023-01-25T13:49:55;57.70;;;18.48;;
56183;SDS011;42086;53.170;6.980;2023-01-25T13:52:22;62.17;;;20.25;;
56183;SDS011;42086;53.170;6.980;2023-01-25T13:54:49;61.67;;;18.67;;
56183;SDS011;42086;53.170;6.980;2023-01-25T13:57:20;55.13;;;15.18;;
56183;SDS011;42086;53.170;6.980;2023-01-25T14:02:38;59.22;;;17.08;;
56183;SDS011;42086;53.170;6.980;2023-01-25T14:05:16;52.65;;;16.48;;
56183;SDS011;42086;53.170;6.980;2023-01-25T14:07:46;58.92;;;16.52;;
56183;SDS011;42086;53.170;6.980;2023-01-25T14:10:22;61.20;;;18.55;;
56183;SDS011;42086;53.170;6.980;2023-01-25T14:12:50;66.78;;;19.42;;
56183;SDS011;42086;53.170;6.980;2023-01-25T14:17:45;72.72;;;19.45;;
56183;SDS011;42086;53.170;6.980;2023-01-25T14:20:27;68.10;;;19.80;;
56183;SDS011;42086;53.170;6.980;2023-01-25T14:22:53;76.68;;;21.67;;
56183;SDS011;42086;53.170;6.980;2023-01-25T14:25:19;72.82;;;19.50;;
56183;SDS011;42086;53.170;6.980;2023-01-25T14:27:56;70.68;;;21.30;;
56183;SDS011;42086;53.170;6.980;2023-01-25T14:32:52;72.03;;;18.58;;
56183;SDS011;42086;53.170;6.980;2023-01-25T14:35:39;69.53;;;17.98;;
56183;SDS011;42086;53.170;6.980;2023-01-25T14:43:45;74.93;;;20.52;;
56183;SDS011;42086;53.170;6.980;2023-01-25T14:46:26;75.82;;;18.73;;
56183;SDS011;42086;53.170;6.980;2023-01-25T14:52:02;80.25;;;21.92;;
56183;SDS011;42086;53.170;6.980;2023-01-25T14:54:33;80.90;;;20.90;;
56183;SDS011;42086;53.170;6.980;2023-01-25T14:57:02;83.18;;;22.38;;
56183;SDS011;42086;53.170;6.980;2023-01-25T14:59:34;87.88;;;22.80;;
56183;SDS011;42086;53.170;6.980;2023-01-25T15:02:17;59.60;;;15.82;;
56183;SDS011;42086;53.170;6.980;2023-01-25T15:04:56;86.95;;;22.17;;
56183;SDS011;42086;53.170;6.980;2023-01-25T15:07:44;82.30;;;20.95;;
56183;SDS011;42086;53.170;6.980;2023-01-25T15:15:33;79.60;;;18.90;;
56183;SDS011;42086;53.170;6.980;2023-01-25T15:18:00;85.32;;;21.08;;
56183;SDS011;42086;53.170;6.980;2023-01-25T15:20:27;75.82;;;18.58;;
56183;SDS011;42086;53.170;6.980;2023-01-25T15:22:58;77.38;;;20.23;;
56183;SDS011;42086;53.170;6.980;2023-01-25T15:25:25;79.25;;;21.75;;
56183;SDS011;42086;53.170;6.980;2023-01-25T15:27:57;87.75;;;21.05;;
56183;SDS011;42086;53.170;6.980;2023-01-25T15:30:23;81.85;;;21.70;;
56183;SDS011;42086;53.170;6.980;2023-01-25T15:32:49;80.18;;;21.52;;
56183;SDS011;42086;53.170;6.980;2023-01-25T15:35:16;84.03;;;21.38;;
56183;SDS011;42086;53.170;6.980;2023-01-25T15:37:44;75.10;;;19.90;;
56183;SDS011;42086;53.170;6.980;2023-01-25T15:40:11;68.05;;;17.00;;
56183;SDS011;42086;53.170;6.980;2023-01-25T15:42:37;72.68;;;20.52;;
56183;SDS011;42086;53.170;6.980;2023-01-25T15:45:04;93.53;;;23.58;;
56183;SDS011;42086;53.170;6.980;2023-01-25T15:47:33;93.68;;;22.52;;
56183;SDS011;42086;53.170;6.980;2023-01-25T15:50:03;90.88;;;21.65;;
56183;SDS011;42086;53.170;6.980;2023-01-25T15:52:30;53.17;;;14.07;;
56183;SDS011;42086;53.170;6.980;2023-01-25T15:54:55;84.05;;;21.23;;
56183;SDS011;42086;53.170;6.980;2023-01-25T15:57:28;78.90;;;19.67;;
56183;SDS011;42086;53.170;6.980;2023-01-25T15:59:56;75.03;;;19.83;;
56183;SDS011;42086;53.170;6.980;2023-01-25T16:02:22;83.38;;;20.25;;
56183;SDS011;42086;53.170;6.980;2023-01-25T16:04:48;78.22;;;20.20;;
56183;SDS011;42086;53.170;6.980;2023-01-25T16:07:18;78.22;;;20.55;;
56183;SDS011;42086;53.170;6.980;2023-01-25T16:09:52;89.88;;;22.02;;
56183;SDS011;42086;53.170;6.980;2023-01-25T16:12:18;89.15;;;21.85;;
56183;SDS011;42086;53.170;6.980;2023-01-25T16:14:46;83.43;;;20.50;;
56183;SDS011;42086;53.170;6.980;2023-01-25T16:17:16;99.43;;;23.75;;
56183;SDS011;42086;53.170;6.980;2023-01-25T16:19:44;92.85;;;22.05;;
56183;SDS011;42086;53.170;6.980;2023-01-25T16:22:15;73.13;;;18.30;;
56183;SDS011;42086;53.170;6.980;2023-01-25T16:24:42;82.78;;;22.15;;
56183;SDS011;42086;53.170;6.980;2023-01-25T16:27:18;61.30;;;16.20;;
56183;SDS011;42086;53.170;6.980;2023-01-25T16:29:52;89.40;;;20.33;;
56183;SDS011;42086;53.170;6.980;2023-01-25T16:32:18;92.15;;;21.45;;
56183;SDS011;42086;53.170;6.980;2023-01-25T16:34:44;97.32;;;22.13;;
56183;SDS011;42086;53.170;6.980;2023-01-25T16:37:13;88.90;;;22.38;;
56183;SDS011;42086;53.170;6.980;2023-01-25T16:39:40;92.65;;;21.15;;
56183;SDS011;42086;53.170;6.980;2023-01-25T16:42:07;83.10;;;18.75;;
56183;SDS011;42086;53.170;6.980;2023-01-25T16:44:34;103.10;;;21.33;;
56183;SDS011;42086;53.170;6.980;2023-01-25T16:46:59;100.22;;;21.67;;
56183;SDS011;42086;53.170;6.980;2023-01-25T16:49:26;102.50;;;22.67;;
56183;SDS011;42086;53.170;6.980;2023-01-25T16:51:58;99.72;;;22.70;;